Time;durP1;ratioP1;P1;durP2;ratioP2;P2;SDS_P1;SDS_P2;PMS_P1;PMS_P2;Temp;Humidity;BMP_temperature;BMP_pressure;BME280_temperature;BME280_humidity;BME280_pressure;Samples;Min_cycle;Max_cycle;Signal;HPM_P1;HPM_P2
2022/07/11 00:02:14;;;;;;;6.72;2.15;;;19.90;70.40;;;;;;5026795;28;20391;-60
2022/07/11 00:04:42;;;;;;;6.57;2.20;;;19.90;70.40;;;;;;5016209;28;20018;-60
2022/07/11 00:07:08;;;;;;;7.00;2.13;;;20.00;70.60;;;;;;5013605;28;20038;-59
2022/07/11 00:09:33;;;;;;;7.65;2.00;;;19.90;70.50;;;;;;5008455;28;20022;-60
2022/07/11 00:12:00;;;;;;;5.25;1.90;;;19.90;70.60;;;;;;5014908;28;20032;-60
2022/07/11 00:14:25;;;;;;;6.63;2.20;;;19.90;70.60;;;;;;5014585;28;20390;-60
2022/07/11 00:16:55;;;;;;;7.20;2.45;;;19.90;70.60;;;;;;5014049;28;20022;-59
2022/07/11 00:19:21;;;;;;;4.82;2.10;;;19.90;70.60;;;;;;5000531;28;20026;-60
2022/07/11 00:21:50;;;;;;;9.80;2.33;;;19.90;70.60;;;;;;5013917;28;20038;-60
2022/07/11 00:24:21;;;;;;;9.98;2.38;;;19.90;70.70;;;;;;5015236;28;20038;-59
2022/07/11 00:26:48;;;;;;;8.63;2.47;;;19.90;70.70;;;;;;5014043;28;20033;-59
2022/07/11 00:29:15;;;;;;;8.07;2.53;;;19.90;70.70;;;;;;5014179;28;20027;-60
2022/07/11 00:31:40;;;;;;;8.32;2.40;;;19.90;70.70;;;;;;5014485;28;20030;-60
2022/07/11 00:34:06;;;;;;;7.97;2.30;;;19.90;70.80;;;;;;5010891;28;20037;-59
2022/07/11 00:36:32;;;;;;;7.82;2.55;;;19.90;70.90;;;;;;5013889;28;20030;-60
2022/07/11 00:38:58;;;;;;;8.52;2.60;;;19.90;71.00;;;;;;5014429;28;20029;-59
2022/07/11 00:41:24;;;;;;;6.60;2.33;;;19.90;71.00;;;;;;5014952;28;20026;-60
2022/07/11 00:43:55;;;;;;;6.32;2.70;;;19.80;71.10;;;;;;5012724;28;20029;-60
2022/07/11 00:46:22;;;;;;;6.35;2.50;;;19.80;71.20;;;;;;5015113;28;20045;-60
2022/07/11 00:48:47;;;;;;;6.28;2.00;;;19.80;71.30;;;;;;5011909;28;20025;-60
2022/07/11 00:51:13;;;;;;;5.03;2.30;;;19.90;71.30;;;;;;5012600;28;20408;-59
2022/07/11 00:53:40;;;;;;;6.10;2.53;;;19.80;71.30;;;;;;5012424;28;20470;-60
2022/07/11 00:56:07;;;;;;;6.80;2.70;;;19.80;71.40;;;;;;5014243;28;20097;-60
2022/07/11 00:58:33;;;;;;;6.88;2.25;;;19.80;71.40;;;;;;5012109;28;20460;-59
2022/07/11 01:00:59;;;;;;;7.78;2.55;;;19.90;71.50;;;;;;5013652;28;20022;-60
2022/07/11 01:03:25;;;;;;;8.25;2.33;;;19.90;71.40;;;;;;5013342;28;20030;-60
2022/07/11 01:05:51;;;;;;;6.78;2.70;;;19.80;71.40;;;;;;5013484;28;20359;-60
2022/07/11 01:08:16;;;;;;;7.07;2.47;;;19.80;71.50;;;;;;5006761;28;20029;-60
2022/07/11 01:10:42;;;;;;;6.53;2.13;;;19.80;71.50;;;;;;4981017;28;20125;-60
2022/07/11 01:13:08;;;;;;;5.88;2.30;;;19.80;71.50;;;;;;5012876;28;20026;-59
2022/07/11 01:15:35;;;;;;;8.18;2.25;;;19.80;71.60;;;;;;5013512;28;20438;-60
2022/07/11 01:18:01;;;;;;;7.03;2.17;;;19.80;71.60;;;;;;5014111;28;20036;-60
2022/07/11 01:20:27;;;;;;;6.43;2.00;;;19.80;71.60;;;;;;5014864;28;20566;-60
2022/07/11 01:22:58;;;;;;;6.55;2.15;;;19.80;71.70;;;;;;5014324;28;20034;-60
2022/07/11 01:25:30;;;;;;;6.65;2.25;;;19.80;71.60;;;;;;5012048;28;20034;-60
2022/07/11 01:28:00;;;;;;;4.85;1.75;;;19.80;71.60;;;;;;5014052;28;20308;-60
2022/07/11 01:30:30;;;;;;;6.95;2.15;;;19.80;71.60;;;;;;5014301;28;20391;-60
2022/07/11 01:32:56;;;;;;;6.43;1.88;;;19.80;71.50;;;;;;5012559;28;20053;-60
2022/07/11 01:35:23;;;;;;;4.05;1.75;;;19.80;71.50;;;;;;5013601;28;20034;-60
2022/07/11 01:37:49;;;;;;;4.20;1.80;;;19.80;71.50;;;;;;5014121;28;20463;-60
2022/07/11 01:40:16;;;;;;;5.82;1.60;;;19.80;71.60;;;;;;5013428;28;20068;-60
2022/07/11 01:42:42;;;;;;;5.68;1.60;;;19.80;71.60;;;;;;5013280;28;20022;-60
2022/07/11 01:45:08;;;;;;;4.30;1.58;;;19.80;71.60;;;;;;5014535;28;20033;-60
2022/07/11 01:47:34;;;;;;;5.82;1.90;;;19.80;71.60;;;;;;5013484;28;20030;-60
2022/07/11 01:50:00;;;;;;;5.85;1.65;;;19.80;71.60;;;;;;5012534;28;20120;-60
2022/07/11 01:52:26;;;;;;;5.60;1.85;;;19.80;71.60;;;;;;5000869;28;20484;-60
2022/07/11 01:54:52;;;;;;;5.40;1.92;;;19.80;71.60;;;;;;5012967;28;20105;-60
2022/07/11 01:57:17;;;;;;;5.05;1.65;;;19.80;71.60;;;;;;5014357;28;20054;-60
2022/07/11 01:59:43;;;;;;;4.22;1.73;;;19.80;71.60;;;;;;5026458;28;20030;-59
2022/07/11 02:02:09;;;;;;;4.32;1.40;;;19.80;71.60;;;;;;5013724;28;20081;-59
2022/07/11 02:04:34;;;;;;;4.18;1.50;;;19.80;71.60;;;;;;5011358;28;20038;-60
2022/07/11 02:07:00;;;;;;;6.28;1.90;;;19.80;71.60;;;;;;5012735;28;20422;-59
2022/07/11 02:09:25;;;;;;;6.22;1.85;;;19.80;71.50;;;;;;5013023;28;20028;-60
2022/07/11 02:11:51;;;;;;;3.50;1.35;;;19.80;71.50;;;;;;5016503;28;20030;-60
2022/07/11 02:14:17;;;;;;;5.13;1.60;;;19.80;71.50;;;;;;5032200;28;20045;-60
2022/07/11 02:16:42;;;;;;;3.30;1.30;;;19.80;71.50;;;;;;5017683;28;20030;-60
2022/07/11 02:19:10;;;;;;;4.15;1.63;;;19.80;71.40;;;;;;5015121;28;20121;-60
2022/07/11 02:21:36;;;;;;;6.55;1.50;;;19.80;71.40;;;;;;5014588;28;20038;-59
2022/07/11 02:24:02;;;;;;;3.78;1.42;;;19.80;71.50;;;;;;5015585;28;20026;-60
2022/07/11 02:26:28;;;;;;;4.30;1.40;;;19.70;71.40;;;;;;5016789;28;20041;-60
2022/07/11 02:28:53;;;;;;;3.92;1.45;;;19.70;71.40;;;;;;5017097;28;20034;-60
2022/07/11 02:31:19;;;;;;;4.28;1.40;;;19.70;71.50;;;;;;5016229;28;20030;-59
2022/07/11 02:33:45;;;;;;;5.57;1.75;;;19.70;71.50;;;;;;5015690;28;20076;-59
2022/07/11 02:36:11;;;;;;;5.47;1.48;;;19.70;71.50;;;;;;5017486;28;20033;-59
2022/07/11 02:38:37;;;;;;;3.10;1.25;;;19.70;71.50;;;;;;5031946;28;20120;-59
2022/07/11 02:41:03;;;;;;;4.75;1.40;;;19.70;71.50;;;;;;5016157;28;20076;-59
2022/07/11 02:43:28;;;;;;;3.88;1.42;;;19.70;71.60;;;;;;5018220;28;20493;-59
2022/07/11 02:45:55;;;;;;;4.88;1.30;;;19.70;71.60;;;;;;5017185;28;20050;-60
2022/07/11 02:48:21;;;;;;;3.55;1.50;;;19.70;71.60;;;;;;5016712;28;20517;-60
2022/07/11 02:50:47;;;;;;;5.68;1.55;;;19.70;71.70;;;;;;5016878;28;20034;-60
2022/07/11 02:53:13;;;;;;;6.47;1.70;;;19.70;71.80;;;;;;5016344;28;20414;-60
2022/07/11 02:55:39;;;;;;;3.55;1.50;;;19.70;71.80;;;;;;5014763;28;20451;-60
2022/07/11 02:58:08;;;;;;;5.00;1.40;;;19.70;71.90;;;;;;5016985;28;20034;-59
2022/07/11 03:00:33;;;;;;;6.10;1.45;;;19.60;71.90;;;;;;5015073;28;20068;-60
2022/07/11 03:02:59;;;;;;;3.40;1.40;;;19.60;72.00;;;;;;5016482;28;20066;-60
2022/07/11 03:05:24;;;;;;;3.45;1.42;;;19.60;72.00;;;;;;5016229;28;20029;-61
2022/07/11 03:07:50;;;;;;;4.53;1.40;;;19.60;72.10;;;;;;5015955;28;20030;-59
2022/07/11 03:10:16;;;;;;;5.57;1.70;;;19.50;72.20;;;;;;5013585;28;20620;-60
2022/07/11 03:12:42;;;;;;;4.47;1.55;;;19.60;72.30;;;;;;5015880;28;20026;-60
2022/07/11 03:15:09;;;;;;;2.60;1.27;;;19.50;72.40;;;;;;5015912;28;20129;-60
2022/07/11 03:17:36;;;;;;;5.20;1.52;;;19.50;72.60;;;;;;5016873;28;20032;-59
2022/07/11 03:20:05;;;;;;;2.55;1.30;;;19.50;72.70;;;;;;5015922;28;20447;-60
2022/07/11 03:22:31;;;;;;;3.15;1.60;;;19.50;72.80;;;;;;5014710;28;20034;-60
2022/07/11 03:24:57;;;;;;;4.43;1.40;;;19.40;72.80;;;;;;5016622;28;20403;-59
2022/07/11 03:27:22;;;;;;;5.03;1.90;;;19.40;72.90;;;;;;5016451;28;20040;-60
2022/07/11 03:29:48;;;;;;;4.95;1.60;;;19.40;73.00;;;;;;5014578;28;20026;-60
2022/07/11 03:32:14;;;;;;;2.00;1.20;;;19.40;73.10;;;;;;5015205;28;20601;-59
2022/07/11 03:34:40;;;;;;;4.18;1.52;;;19.40;73.20;;;;;;5016202;28;20110;-60
2022/07/11 03:37:06;;;;;;;5.35;1.67;;;19.40;73.30;;;;;;5016357;28;20022;-60
2022/07/11 03:39:31;;;;;;;4.25;1.70;;;19.40;73.40;;;;;;5013808;28;20030;-60
2022/07/11 03:41:57;;;;;;;4.07;1.70;;;19.40;73.50;;;;;;5014665;28;20025;-60
2022/07/11 03:44:24;;;;;;;3.72;1.48;;;19.40;73.50;;;;;;5018221;28;20022;-60
2022/07/11 03:46:49;;;;;;;6.32;1.63;;;19.40;73.60;;;;;;5016327;28;20363;-60
2022/07/11 03:49:15;;;;;;;4.40;1.80;;;19.40;73.60;;;;;;5015106;28;20091;-60
2022/07/11 03:51:41;;;;;;;3.58;1.50;;;19.40;73.70;;;;;;5014902;28;20025;-60
2022/07/11 03:54:07;;;;;;;3.70;1.42;;;19.40;73.70;;;;;;5014746;28;20119;-60
2022/07/11 03:56:32;;;;;;;3.60;1.45;;;19.40;73.70;;;;;;5016357;28;20048;-59
2022/07/11 03:58:58;;;;;;;3.35;1.48;;;19.40;73.70;;;;;;5015058;28;20036;-59
2022/07/11 04:01:23;;;;;;;4.88;1.60;;;19.40;73.70;;;;;;5014488;28;20037;-60
2022/07/11 04:03:49;;;;;;;4.35;1.75;;;19.40;73.70;;;;;;5014790;28;20029;-60
2022/07/11 04:06:15;;;;;;;3.65;1.55;;;19.30;73.70;;;;;;5013475;28;20049;-59
2022/07/11 04:08:42;;;;;;;4.60;1.63;;;19.30;73.80;;;;;;5016051;28;20562;-60
2022/07/11 04:11:08;;;;;;;4.38;1.70;;;19.30;73.80;;;;;;5012925;28;20352;-60
2022/07/11 04:13:33;;;;;;;4.30;1.60;;;19.30;73.80;;;;;;5014862;28;20085;-59
2022/07/11 04:15:59;;;;;;;5.18;1.70;;;19.30;73.90;;;;;;5013972;28;20018;-60
2022/07/11 04:18:25;;;;;;;3.47;1.55;;;19.30;73.90;;;;;;5015590;28;20490;-60
2022/07/11 04:20:51;;;;;;;3.92;1.75;;;19.30;74.00;;;;;;5014294;28;20459;-59
2022/07/11 04:23:17;;;;;;;4.35;1.70;;;19.30;74.20;;;;;;5014379;28;20443;-60
2022/07/11 04:25:42;;;;;;;3.10;1.25;;;19.20;74.40;;;;;;5013816;28;20034;-60
2022/07/11 04:28:08;;;;;;;2.88;1.58;;;19.20;74.60;;;;;;5015749;28;20030;-60
2022/07/11 04:30:34;;;;;;;4.82;1.70;;;19.20;74.80;;;;;;5015277;28;20355;-60
2022/07/11 04:33:00;;;;;;;2.85;1.40;;;19.20;74.90;;;;;;5014764;28;20026;-60
2022/07/11 04:35:27;;;;;;;4.45;2.00;;;19.20;75.20;;;;;;5012980;28;20363;-60
2022/07/11 04:37:53;;;;;;;4.95;2.20;;;19.20;75.30;;;;;;5014494;28;20034;-60
2022/07/11 04:40:20;;;;;;;4.38;1.40;;;19.20;75.40;;;;;;5012595;28;20026;-60
2022/07/11 04:42:46;;;;;;;5.28;1.77;;;19.20;75.60;;;;;;5015004;28;20033;-59
2022/07/11 04:45:12;;;;;;;5.15;1.73;;;19.20;75.80;;;;;;5014595;28;20351;-59
2022/07/11 04:47:38;;;;;;;2.78;1.40;;;19.20;75.80;;;;;;5020877;28;20030;-61
2022/07/11 04:50:04;;;;;;;3.65;1.45;;;19.20;75.80;;;;;;5019869;28;20022;-60
2022/07/11 04:52:30;;;;;;;3.53;1.60;;;19.10;75.70;;;;;;5014622;28;20450;-60
2022/07/11 04:54:55;;;;;;;2.30;1.33;;;19.20;75.80;;;;;;5015260;28;20030;-61
2022/07/11 04:57:21;;;;;;;3.15;1.42;;;19.20;75.80;;;;;;5015376;28;20064;-60
2022/07/11 04:59:47;;;;;;;2.97;1.38;;;19.20;75.80;;;;;;5014629;28;20463;-61
2022/07/11 05:02:12;;;;;;;4.43;1.33;;;19.10;75.70;;;;;;5013753;28;20105;-61
2022/07/11 05:04:38;;;;;;;3.35;1.40;;;19.20;75.80;;;;;;5014022;28;20033;-61
2022/07/11 05:07:04;;;;;;;5.00;1.58;;;19.10;75.80;;;;;;5014760;28;20037;-61
2022/07/11 05:09:30;;;;;;;4.53;1.60;;;19.20;75.90;;;;;;5013515;28;20137;-61
2022/07/11 05:11:56;;;;;;;4.93;1.42;;;19.20;76.00;;;;;;5013163;28;20072;-61
2022/07/11 05:14:22;;;;;;;3.65;1.42;;;19.20;76.00;;;;;;5014514;28;20065;-60
2022/07/11 05:16:47;;;;;;;3.50;1.67;;;19.20;75.90;;;;;;5013108;28;20053;-59
2022/07/11 05:19:13;;;;;;;3.72;1.42;;;19.20;75.90;;;;;;5013189;28;20121;-59
2022/07/11 05:21:39;;;;;;;4.80;1.60;;;19.20;75.80;;;;;;5012976;28;20073;-59
2022/07/11 05:24:05;;;;;;;2.85;1.20;;;19.30;75.90;;;;;;5017317;28;20113;-60
2022/07/11 05:26:30;;;;;;;3.20;1.48;;;19.30;75.90;;;;;;5012441;28;20345;-60
2022/07/11 05:28:56;;;;;;;3.47;1.38;;;19.30;75.90;;;;;;5013370;28;20034;-59
2022/07/11 05:31:22;;;;;;;4.93;1.65;;;19.30;75.90;;;;;;5014842;28;20034;-59
2022/07/11 05:33:48;;;;;;;3.13;1.23;;;19.30;75.80;;;;;;5014967;28;20164;-60
2022/07/11 05:36:14;;;;;;;4.22;1.67;;;19.30;75.80;;;;;;5014836;28;20117;-59
2022/07/11 05:38:39;;;;;;;3.17;1.50;;;19.30;75.80;;;;;;5014588;28;20034;-60
2022/07/11 05:41:05;;;;;;;5.65;1.92;;;19.30;75.70;;;;;;5012996;28;20049;-60
2022/07/11 05:43:30;;;;;;;5.00;1.40;;;19.30;75.70;;;;;;5013878;28;20022;-59
2022/07/11 05:45:56;;;;;;;2.88;1.40;;;19.30;75.70;;;;;;5018127;28;20022;-60
2022/07/11 05:48:22;;;;;;;5.25;1.27;;;19.30;75.60;;;;;;5017637;28;20488;-60
2022/07/11 05:50:47;;;;;;;2.65;1.25;;;19.30;75.60;;;;;;5017865;28;20026;-60
2022/07/11 05:53:14;;;;;;;3.88;1.48;;;19.30;75.80;;;;;;5018254;28;20042;-60
2022/07/11 05:55:40;;;;;;;2.75;1.20;;;19.30;75.90;;;;;;5010921;28;20048;-60
2022/07/11 05:58:06;;;;;;;4.22;1.48;;;19.30;76.00;;;;;;5018452;28;20025;-60
2022/07/11 06:00:31;;;;;;;2.70;1.23;;;19.40;76.10;;;;;;5017791;28;20447;-60
2022/07/11 06:02:57;;;;;;;2.00;1.17;;;19.40;76.10;;;;;;5018495;28;20026;-60
2022/07/11 06:05:23;;;;;;;3.15;1.15;;;19.40;76.10;;;;;;5018896;28;20037;-60
2022/07/11 06:10:33;;;;;;;2.67;1.30;;;19.40;76.30;;;;;;5016390;28;20176;-60
2022/07/11 06:12:59;;;;;;;3.33;1.70;;;19.40;76.40;;;;;;5017289;28;20113;-60
2022/07/11 06:15:24;;;;;;;3.00;1.35;;;19.40;76.50;;;;;;5015370;28;20026;-61
2022/07/11 06:17:50;;;;;;;2.22;1.30;;;19.40;76.50;;;;;;5017438;28;20033;-60
2022/07/11 06:20:16;;;;;;;1.77;1.30;;;19.40;76.60;;;;;;5017609;28;20062;-60
2022/07/11 06:22:42;;;;;;;2.40;1.20;;;19.40;76.70;;;;;;5019731;28;20198;-60
2022/07/11 06:25:09;;;;;;;3.78;1.40;;;19.40;76.90;;;;;;5017132;28;20014;-60
2022/07/11 06:27:35;;;;;;;4.03;1.40;;;19.40;77.00;;;;;;5019045;28;20022;-61
2022/07/11 06:30:01;;;;;;;2.63;1.10;;;19.40;77.80;;;;;;5009617;28;20033;-60
2022/07/11 06:32:28;;;;;;;2.20;1.23;;;19.50;77.20;;;;;;5017265;28;20397;-61
2022/07/11 06:34:53;;;;;;;2.55;1.33;;;19.50;77.30;;;;;;5016466;28;20168;-61
2022/07/11 06:37:19;;;;;;;4.10;1.25;;;19.60;77.30;;;;;;5017816;28;20457;-60
2022/07/11 06:39:45;;;;;;;1.60;0.95;;;19.50;77.30;;;;;;5016139;28;20034;-61
2022/07/11 06:42:10;;;;;;;1.40;0.88;;;19.60;77.40;;;;;;5015996;28;20030;-60
2022/07/11 06:44:36;;;;;;;1.75;0.80;;;19.50;77.30;;;;;;5031998;28;20088;-61
2022/07/11 06:47:02;;;;;;;2.35;1.08;;;19.60;77.30;;;;;;5017457;28;20021;-61
2022/07/11 06:49:27;;;;;;;1.48;0.75;;;19.60;77.30;;;;;;5015101;28;20025;-61
2022/07/11 06:51:53;;;;;;;0.85;0.65;;;19.50;77.30;;;;;;5011546;28;20041;-61
2022/07/11 06:54:19;;;;;;;1.65;0.88;;;19.50;77.20;;;;;;5006450;28;20038;-61
2022/07/11 06:56:44;;;;;;;1.95;0.73;;;19.60;77.00;;;;;;5014319;28;20029;-61
2022/07/11 06:59:10;;;;;;;2.00;0.88;;;19.70;76.90;;;;;;5017006;28;20030;-61
2022/07/11 07:01:36;;;;;;;0.80;0.60;;;19.70;76.80;;;;;;5017089;28;20103;-61
2022/07/11 07:04:01;;;;;;;1.63;0.77;;;19.80;76.60;;;;;;5016404;28;20048;-61
2022/07/11 07:06:27;;;;;;;1.77;0.80;;;19.90;76.40;;;;;;5015799;28;20360;-61
2022/07/11 07:08:53;;;;;;;1.10;0.60;;;19.90;76.30;;;;;;5023976;28;20088;-59
2022/07/11 07:11:19;;;;;;;1.38;0.70;;;19.90;76.30;;;;;;5016552;28;20061;-60
2022/07/11 07:13:45;;;;;;;1.40;0.70;;;19.90;76.20;;;;;;5015898;28;20340;-60
2022/07/11 07:16:11;;;;;;;1.27;0.82;;;19.90;76.20;;;;;;5014524;28;20037;-60
2022/07/11 07:18:40;;;;;;;1.33;0.60;;;20.00;76.20;;;;;;5015934;28;20022;-60
2022/07/11 07:21:06;;;;;;;2.05;0.80;;;20.10;76.10;;;;;;5015181;28;20087;-60
2022/07/11 07:23:32;;;;;;;0.60;0.60;;;20.20;75.90;;;;;;5022538;28;20104;-61
2022/07/11 07:25:58;;;;;;;1.30;0.77;;;20.20;75.90;;;;;;5016327;28;20060;-61
2022/07/11 07:28:23;;;;;;;1.40;0.85;;;20.20;75.80;;;;;;5015997;28;20026;-61
2022/07/11 07:30:49;;;;;;;1.20;0.85;;;20.20;75.70;;;;;;5016095;28;20029;-60
2022/07/11 07:33:15;;;;;;;1.73;0.80;;;20.20;75.70;;;;;;5014430;28;20129;-60
2022/07/11 07:35:41;;;;;;;1.15;0.73;;;20.30;75.60;;;;;;5015000;28;20022;-61
2022/07/11 07:38:07;;;;;;;0.80;0.65;;;20.30;75.40;;;;;;5014919;28;20030;-61
2022/07/11 07:40:32;;;;;;;1.25;0.82;;;20.30;75.50;;;;;;5016023;28;20048;-63
2022/07/11 07:42:58;;;;;;;2.97;0.90;;;20.30;75.40;;;;;;5012963;28;20049;-61
2022/07/11 07:45:24;;;;;;;1.80;0.98;;;20.40;75.30;;;;;;5014944;28;20371;-61
2022/07/11 07:47:50;;;;;;;1.20;0.70;;;20.40;75.20;;;;;;5014372;28;20104;-62
2022/07/11 07:50:15;;;;;;;1.20;0.80;;;20.40;75.10;;;;;;5016023;28;20018;-60
2022/07/11 07:52:41;;;;;;;1.80;0.73;;;20.50;75.10;;;;;;5015160;28;20053;-60
2022/07/11 07:55:07;;;;;;;1.17;0.80;;;20.60;74.90;;;;;;5014947;28;20056;-60
2022/07/11 07:57:33;;;;;;;1.92;0.80;;;20.90;74.50;;;;;;5014258;28;20108;-60
2022/07/11 08:02:43;;;;;;;0.75;0.63;;;21.50;73.20;;;;;;5009467;28;20101;-61
2022/07/11 08:05:09;;;;;;;1.08;0.82;;;21.80;72.30;;;;;;5017434;28;20064;-60
2022/07/11 08:07:35;;;;;;;1.70;0.98;;;22.20;71.60;;;;;;5014488;28;20115;-60
2022/07/11 08:10:05;;;;;;;0.88;0.65;;;22.60;70.60;;;;;;5014413;28;20050;-60
2022/07/11 08:12:30;;;;;;;2.33;1.08;;;22.80;69.70;;;;;;5013706;28;20033;-60
2022/07/11 08:14:56;;;;;;;1.42;0.80;;;22.80;69.20;;;;;;5014813;28;20041;-60
2022/07/11 08:17:21;;;;;;;1.63;0.98;;;22.60;69.20;;;;;;5014867;28;20370;-60
2022/07/11 08:19:47;;;;;;;1.88;0.93;;;22.40;69.50;;;;;;5012961;28;20664;-62
2022/07/11 08:22:13;;;;;;;1.60;0.90;;;22.20;70.00;;;;;;5005344;28;20113;-60
2022/07/11 08:24:38;;;;;;;1.85;0.80;;;22.00;70.30;;;;;;5013550;28;20026;-59
2022/07/11 08:27:04;;;;;;;1.90;0.90;;;21.90;70.40;;;;;;5015578;28;20084;-60
2022/07/11 08:29:29;;;;;;;1.23;0.70;;;21.80;70.60;;;;;;5014640;28;20057;-61
2022/07/11 08:31:55;;;;;;;1.67;0.80;;;21.80;70.60;;;;;;5014092;28;20439;-61
2022/07/11 08:34:21;;;;;;;1.17;0.75;;;21.70;70.50;;;;;;5013374;28;20037;-63
2022/07/11 08:36:46;;;;;;;0.75;0.73;;;21.60;70.40;;;;;;5015240;28;20065;-62
2022/07/11 08:39:12;;;;;;;0.73;0.60;;;21.50;70.40;;;;;;5013163;28;20046;-61
2022/07/11 08:41:43;;;;;;;0.80;0.70;;;21.50;70.60;;;;;;5014722;28;20111;-61
2022/07/11 08:44:10;;;;;;;;;;;21.50;70.40;;;;;;5010213;28;20080;-61
2022/07/11 08:46:37;;;;;;;0.65;0.60;;;21.60;70.40;;;;;;5014513;28;20004;-61
2022/07/11 08:49:04;;;;;;;1.50;0.70;;;21.90;69.90;;;;;;5013953;28;20029;-62
2022/07/11 08:51:29;;;;;;;2.20;0.88;;;22.00;69.10;;;;;;5014372;28;20026;-61
2022/07/11 08:53:55;;;;;;;1.65;0.90;;;22.10;68.90;;;;;;5026957;28;20033;-61
2022/07/11 08:56:22;;;;;;;1.15;0.75;;;22.10;68.70;;;;;;5014158;28;20117;-61
2022/07/11 08:58:49;;;;;;;1.60;0.90;;;22.00;68.70;;;;;;5014459;28;20075;-61
2022/07/11 09:01:16;;;;;;;1.23;0.82;;;22.00;68.90;;;;;;5011509;28;20510;-61
2022/07/11 09:03:42;;;;;;;1.00;0.50;;;21.80;69.10;;;;;;5013838;28;20025;-62
2022/07/11 09:06:10;;;;;;;1.23;0.70;;;21.70;69.20;;;;;;5013494;28;20247;-63
2022/07/11 09:08:36;;;;;;;0.60;0.60;;;21.60;69.60;;;;;;5012012;28;20048;-61
2022/07/11 09:11:03;;;;;;;1.17;0.80;;;21.50;69.80;;;;;;5013661;28;20050;-61
2022/07/11 09:13:30;;;;;;;2.45;0.90;;;21.40;70.40;;;;;;5025835;28;20049;-60
2022/07/11 09:16:04;;;;;;;1.65;0.80;;;21.30;70.40;;;;;;5013575;28;20034;-60
2022/07/11 09:18:32;;;;;;;1.55;0.90;;;21.20;70.80;;;;;;5000382;28;20112;-61
2022/07/11 09:26:41;;;;;;;2.17;0.70;;;21.00;71.20;;;;;;5015000;28;20076;-60
2022/07/11 09:29:06;;;;;;;1.27;0.70;;;21.00;71.20;;;;;;5014092;28;20036;-61
2022/07/11 09:31:34;;;;;;;0.75;0.70;;;21.10;71.10;;;;;;5010807;28;20042;-59
2022/07/11 09:34:08;;;;;;;1.63;0.88;;;21.10;71.60;;;;;;5013534;28;20030;-61
2022/07/11 09:36:40;;;;;;;0.77;0.70;;;21.20;71.00;;;;;;5014703;28;20363;-60
2022/07/11 09:39:08;;;;;;;3.15;1.13;;;21.20;70.90;;;;;;5013418;28;20041;-60
2022/07/11 09:41:34;;;;;;;2.33;1.08;;;21.30;70.80;;;;;;5014287;28;20363;-61
2022/07/11 09:44:16;;;;;;;0.77;0.70;;;21.30;70.70;;;;;;5013928;28;20030;-60
2022/07/11 09:46:43;;;;;;;;;;;21.20;70.70;;;;;;5022243;28;20022;-60
2022/07/11 09:49:09;;;;;;;2.13;1.13;;;21.20;70.70;;;;;;5013055;28;20232;-60
2022/07/11 09:51:37;;;;;;;1.27;0.93;;;21.10;70.70;;;;;;5012719;28;20046;-60
2022/07/11 09:54:04;;;;;;;2.50;1.08;;;21.10;70.90;;;;;;5011902;28;20029;-60
2022/07/11 09:56:39;;;;;;;1.65;1.00;;;21.10;71.80;;;;;;5014136;28;20037;-60
2022/07/11 09:59:06;;;;;;;2.45;1.00;;;21.00;71.10;;;;;;5012315;28;20022;-59
2022/07/11 10:01:32;;;;;;;1.60;0.73;;;21.00;71.20;;;;;;5011053;28;20030;-60
2022/07/11 10:03:58;;;;;;;3.22;1.10;;;21.00;71.30;;;;;;5012611;28;20022;-60
2022/07/11 10:06:24;;;;;;;1.30;1.05;;;21.00;71.40;;;;;;5014588;28;20029;-60
2022/07/11 10:08:53;;;;;;;1.83;0.98;;;21.00;71.40;;;;;;5012276;28;20359;-60
2022/07/11 10:11:20;;;;;;;1.48;0.88;;;21.00;71.40;;;;;;5012595;28;20065;-60
2022/07/11 10:13:46;;;;;;;2.22;0.95;;;21.00;71.20;;;;;;5014137;28;20036;-60
2022/07/11 10:16:47;;;;;;;1.98;1.00;;;21.10;71.20;;;;;;5014212;28;20113;-60
2022/07/11 10:19:35;;;;;;;1.17;0.90;;;21.10;71.00;;;;;;5012680;28;20366;-60
2022/07/11 10:22:16;;;;;;;2.53;1.08;;;21.20;70.90;;;;;;5023768;28;20034;-60
2022/07/11 10:24:56;;;;;;;2.83;1.33;;;21.20;70.80;;;;;;5013969;28;20444;-61
2022/07/11 10:27:24;;;;;;;2.10;0.70;;;21.30;70.80;;;;;;5013685;28;20161;-60
2022/07/11 10:29:52;;;;;;;3.92;1.20;;;21.40;70.60;;;;;;5014078;28;20160;-60
2022/07/11 10:32:19;;;;;;;2.08;1.10;;;21.50;70.40;;;;;;5030791;28;20109;-60
2022/07/11 10:34:46;;;;;;;3.17;1.13;;;21.60;70.00;;;;;;5016544;28;20030;-61
2022/07/11 10:37:12;;;;;;;1.40;0.90;;;21.70;69.90;;;;;;5017699;28;20030;-60
2022/07/11 10:39:46;;;;;;;2.13;0.90;;;21.70;69.50;;;;;;5017532;28;20153;-60
2022/07/11 10:42:19;;;;;;;1.63;0.90;;;21.80;69.30;;;;;;5016770;28;20065;-61
2022/07/11 10:44:54;;;;;;;1.27;0.80;;;21.80;69.30;;;;;;5017534;28;20109;-60
2022/07/11 10:47:40;;;;;;;1.75;0.90;;;21.80;69.30;;;;;;5017809;28;20029;-60
2022/07/11 10:50:33;;;;;;;1.33;0.93;;;21.70;69.20;;;;;;5017248;28;20121;-60
2022/07/11 10:53:08;;;;;;;1.73;0.75;;;21.70;69.50;;;;;;5014112;28;20049;-60
2022/07/11 10:55:46;;;;;;;1.50;0.90;;;21.60;69.80;;;;;;5017226;28;20041;-60
2022/07/11 10:58:31;;;;;;;2.47;0.88;;;21.60;69.80;;;;;;5014810;28;20033;-60
2022/07/11 11:01:14;;;;;;;1.58;0.70;;;21.60;69.70;;;;;;5016526;28;20041;-60
2022/07/11 11:03:42;;;;;;;1.88;0.75;;;21.70;69.60;;;;;;5017237;28;20030;-60
2022/07/11 11:06:08;;;;;;;1.20;0.80;;;21.90;69.50;;;;;;5016731;28;20037;-60
2022/07/11 11:08:34;;;;;;;1.08;0.88;;;22.10;69.20;;;;;;5017051;28;20018;-60
2022/07/11 11:11:04;;;;;;;3.67;1.60;;;22.30;68.80;;;;;;5015461;28;20057;-60
2022/07/11 11:13:30;;;;;;;2.65;1.20;;;22.50;68.40;;;;;;5016799;28;20049;-60
2022/07/11 11:16:00;;;;;;;1.88;1.13;;;22.50;68.10;;;;;;5016822;28;20057;-60
2022/07/11 11:18:26;;;;;;;1.40;0.90;;;22.60;68.00;;;;;;5016653;28;20030;-61
2022/07/11 11:20:57;;;;;;;0.70;0.68;;;22.60;67.90;;;;;;5017133;28;20034;-60
2022/07/11 11:23:24;;;;;;;1.85;0.82;;;22.50;67.70;;;;;;5032002;28;20026;-60
2022/07/11 11:25:50;;;;;;;1.38;0.90;;;22.40;67.80;;;;;;5016929;28;20030;-60
2022/07/11 11:28:20;;;;;;;3.50;1.00;;;22.40;68.00;;;;;;5016885;28;20026;-60
2022/07/11 11:30:58;;;;;;;2.42;0.90;;;22.30;68.20;;;;;;5010253;28;20067;-56
2022/07/11 11:33:28;;;;;;;2.22;0.88;;;22.30;68.40;;;;;;5016624;28;20030;-61
2022/07/11 11:36:11;;;;;;;2.67;0.90;;;22.30;68.40;;;;;;5016772;28;20092;-61
2022/07/11 11:38:39;;;;;;;1.52;0.80;;;22.30;68.50;;;;;;5016594;28;20026;-60
2022/07/11 11:41:06;;;;;;;2.72;0.88;;;22.20;68.50;;;;;;5016633;28;20120;-62
2022/07/11 11:43:32;;;;;;;1.60;0.77;;;22.20;68.70;;;;;;5015219;28;20517;-61
2022/07/11 11:45:58;;;;;;;1.65;0.93;;;22.10;68.80;;;;;;5016463;28;20359;-61
2022/07/11 11:48:33;;;;;;;2.42;0.90;;;22.10;68.90;;;;;;5016155;28;20041;-60
2022/07/11 11:51:05;;;;;;;1.92;1.08;;;22.00;69.00;;;;;;5016567;28;20086;-60
2022/07/11 11:53:43;;;;;;;1.83;1.00;;;22.00;69.10;;;;;;5016212;28;20056;-61
2022/07/11 11:56:28;;;;;;;1.77;0.80;;;22.00;69.20;;;;;;5016300;28;20038;-60
2022/07/11 11:59:15;;;;;;;1.85;0.93;;;22.00;69.20;;;;;;5016064;28;20045;-60
2022/07/11 12:01:47;;;;;;;0.95;0.77;;;22.10;69.10;;;;;;5015459;28;20386;-60
2022/07/11 12:04:15;;;;;;;1.92;0.88;;;22.10;68.90;;;;;;5016092;28;20030;-61
2022/07/11 12:06:46;;;;;;;2.70;0.95;;;22.20;68.90;;;;;;5016001;28;20026;-60
2022/07/11 12:09:15;;;;;;;1.63;1.00;;;22.20;68.60;;;;;;5015081;28;20451;-60
2022/07/11 12:11:43;;;;;;;1.77;0.95;;;22.30;68.60;;;;;;5015719;28;20205;-60
2022/07/11 12:14:11;;;;;;;2.08;0.90;;;22.30;68.50;;;;;;5015714;28;20045;-60
2022/07/11 12:16:48;;;;;;;2.00;0.90;;;22.30;68.50;;;;;;5015930;28;20033;-60
2022/07/11 12:19:22;;;;;;;2.15;1.00;;;22.30;68.60;;;;;;5015160;28;20112;-59
2022/07/11 12:21:53;;;;;;;1.33;0.90;;;22.30;68.50;;;;;;5015723;28;20447;-59
2022/07/11 12:24:26;;;;;;;2.22;1.10;;;22.30;68.60;;;;;;5015752;28;20030;-59
2022/07/11 12:26:52;;;;;;;1.88;1.05;;;22.30;68.50;;;;;;5015962;28;20025;-59
2022/07/11 12:29:20;;;;;;;1.75;1.00;;;22.30;68.60;;;;;;5015200;28;20071;-59
2022/07/11 12:31:50;;;;;;;1.83;0.85;;;22.20;68.70;;;;;;5015035;28;20044;-60
2022/07/11 12:34:18;;;;;;;2.17;1.02;;;22.20;68.90;;;;;;4996989;28;20042;-59
2022/07/11 12:36:45;;;;;;;2.88;1.00;;;22.10;69.10;;;;;;5014150;28;20033;-60
2022/07/11 12:39:23;;;;;;;2.53;0.80;;;22.10;69.40;;;;;;5001591;28;20447;-59
2022/07/11 12:41:51;;;;;;;3.25;1.02;;;22.10;69.50;;;;;;5008720;28;20034;-60
2022/07/11 12:47:06;;;;;;;2.42;1.15;;;22.20;69.20;;;;;;5014442;28;20359;-60
2022/07/11 12:49:33;;;;;;;2.55;1.38;;;22.20;68.90;;;;;;5014197;28;20332;-60
2022/07/11 12:52:00;;;;;;;1.90;1.10;;;22.30;68.60;;;;;;5015045;28;20033;-60
2022/07/11 12:54:34;;;;;;;2.78;1.02;;;22.40;68.50;;;;;;5014193;28;20032;-60
2022/07/11 12:57:04;;;;;;;0.98;0.70;;;22.40;68.50;;;;;;5009885;28;20034;-60
2022/07/11 12:59:31;;;;;;;1.02;0.70;;;22.40;68.40;;;;;;5015390;28;20040;-60
2022/07/11 13:02:15;;;;;;;1.15;0.70;;;22.50;68.30;;;;;;5014589;28;20030;-60
2022/07/11 13:04:48;;;;;;;1.48;0.90;;;22.50;68.10;;;;;;5012782;28;20036;-60